map of PRJ home
PRJ - Heliport
Location
City:  Capri, Campania, Italy
Name:Anacapri Damecuta
ICAO:LIQC
IATA:PRJ

Details
Type:Heliport
Latitude:4033'29"N (40.558056)
Longitude:1412'04"E (14.201111)
Elevation:512 ft (156 m)
Variation:3.53E (WMM2015v2 magnetic declination)
0.13 annual change

Time
Time Zone:UTC+1 (DST+2)
Local Time:

Weather
METAR:LIQC 041355Z 05003KT 9999 OVC030 12/06 Q1014 RMK OVC QUK 3 QUL 1 NE VIS MAR 25 KM VIS MIN 9999

Related Locations
Nearby:
Farthest:CHT: 11849 mi / 19069 km
Waitangi [Tuuta], CIT, NZ

Find:

   beyond  
but within

Other Information
Maps:
NOTAMs:
Links:
Sources:

  
  • flag of Italy
  • flag of Campania
  

Sectional Chart

Flight Planning
at skyvector.com

Satellite Image

Google Maps Satellite view

 

Copyright © 2004-2019 Karl L. Swartz. All rights reserved.
The Great Circle Mapper name and logo are trademarks of the Great Circle Mapper.
All other trademarks mentioned herein belong to their respective owners.
Please see credits for attibutions and further copyright information.

  Follow gcmap on Facebook Follow gcmap on Twitter GCmap on LinkedIn

hCard Microformat

Geo Microformat